Time;durP1;ratioP1;P1;durP2;ratioP2;P2;SDS_P1;SDS_P2;PMS_P1;PMS_P2;Temp;Humidity;BMP_temperature;BMP_pressure;BME280_temperature;BME280_humidity;BME280_pressure;Samples;Min_cycle;Max_cycle;Signal;HPM_P1;HPM_P2
2022/06/22 00:02:05;;;;;;;20.47;14.63;;;25.40;56.90;;;;;;5068983;28;21037;-71
2022/06/22 00:04:36;;;;;;;28.83;15.87;;;25.50;56.80;;;;;;5056617;28;20461;-70
2022/06/22 00:07:04;;;;;;;20.73;15.20;;;25.30;57.20;;;;;;5060256;28;20468;-71
2022/06/22 00:09:34;;;;;;;22.93;15.87;;;25.20;58.30;;;;;;5067698;28;20461;-71
2022/06/22 00:12:01;;;;;;;22.83;14.93;;;25.30;57.10;;;;;;5061396;28;20438;-71
2022/06/22 00:14:45;;;;;;;17.43;15.07;;;25.30;57.80;;;;;;5057567;28;20844;-70
2022/06/22 00:17:34;;;;;;;22.93;15.00;;;25.10;58.80;;;;;;5052642;28;20414;-71
2022/06/22 00:20:18;;;;;;;18.30;13.37;;;25.10;57.00;;;;;;5053973;28;20465;-71
2022/06/22 00:22:59;;;;;;;22.40;14.30;;;25.30;52.30;;;;;;5067060;28;20511;-71
2022/06/22 00:25:31;;;;;;;21.13;14.90;;;25.30;52.50;;;;;;5051106;28;20818;-71
2022/06/22 00:28:25;;;;;;;20.60;15.20;;;25.30;55.10;;;;;;5057787;28;20796;-71
2022/06/22 00:31:21;;;;;;;20.67;15.27;;;25.10;56.90;;;;;;5055441;28;20831;-71
2022/06/22 00:34:11;;;;;;;26.57;15.90;;;25.20;56.70;;;;;;5072056;28;20777;-71
2022/06/22 00:36:42;;;;;;;19.80;15.13;;;25.10;56.10;;;;;;5054518;28;20433;-71
2022/06/22 00:39:16;;;;;;;23.57;14.33;;;25.10;56.90;;;;;;5056956;28;20918;-71
2022/06/22 00:41:46;;;;;;;24.60;14.43;;;25.10;56.90;;;;;;5056508;28;20511;-71
2022/06/22 00:44:14;;;;;;;19.80;14.20;;;25.40;53.70;;;;;;5053546;28;20939;-71
2022/06/22 00:46:48;;;;;;;23.20;15.00;;;25.30;55.00;;;;;;5057411;28;20444;-71
2022/06/22 00:49:19;;;;;;;24.87;15.40;;;25.20;56.10;;;;;;5053180;28;20416;-71
2022/06/22 00:51:44;;;;;;;21.33;15.00;;;25.30;57.10;;;;;;5059608;28;20465;-71
2022/06/22 00:54:15;;;;;;;24.07;13.53;;;25.20;56.50;;;;;;5060334;28;20456;-71
2022/06/22 00:56:50;;;;;;;25.80;14.23;;;25.10;55.70;;;;;;5058513;28;20184;-71
2022/06/22 00:59:24;;;;;;;18.90;12.57;;;25.20;53.20;;;;;;5062709;22;20494;-67
2022/06/22 01:01:54;;;;;;;27.20;13.60;;;25.30;53.40;;;;;;5029005;28;20430;-67
2022/06/22 01:04:39;;;;;;;24.73;15.03;;;25.30;55.20;;;;;;5030857;28;20826;-66
2022/06/22 01:07:26;;;;;;;21.60;15.00;;;25.30;54.10;;;;;;5030250;28;20504;-66
2022/06/22 01:09:55;;;;;;;20.07;13.80;;;25.20;55.70;;;;;;5014928;28;21001;-68
2022/06/22 01:12:42;;;;;;;21.50;13.27;;;25.40;55.30;;;;;;5008633;28;20462;-66
2022/06/22 01:15:30;;;;;;;18.33;13.93;;;25.30;55.20;;;;;;5008658;28;20990;-68
2022/06/22 01:18:08;;;;;;;21.90;13.60;;;25.20;56.50;;;;;;5000534;28;21116;-67
2022/06/22 01:20:33;;;;;;;19.63;13.80;;;25.00;57.40;;;;;;4997415;28;20429;-67
2022/06/22 01:23:17;;;;;;;23.47;15.20;;;25.00;57.60;;;;;;5013497;28;20518;-67
2022/06/22 01:25:51;;;;;;;20.93;13.63;;;25.00;57.90;;;;;;4998765;28;20181;-67
2022/06/22 01:28:17;;;;;;;18.53;14.23;;;25.00;58.00;;;;;;5004882;28;20474;-67
2022/06/22 01:30:53;;;;;;;23.33;15.40;;;25.00;57.80;;;;;;5000771;28;20555;-70
2022/06/22 01:33:26;;;;;;;19.87;14.70;;;25.00;58.40;;;;;;5005194;28;20427;-67
2022/06/22 01:35:57;;;;;;;21.53;13.93;;;25.10;56.70;;;;;;5014957;28;20428;-67
2022/06/22 01:38:26;;;;;;;23.30;13.07;;;25.30;51.40;;;;;;5000436;28;20459;-66
2022/06/22 01:41:06;;;;;;;15.67;12.30;;;25.30;50.20;;;;;;4996523;28;21014;-67
2022/06/22 01:43:37;;;;;;;17.90;14.20;;;25.00;52.90;;;;;;4995303;28;20434;-66
2022/06/22 01:46:12;;;;;;;22.13;13.43;;;25.10;53.00;;;;;;5011626;28;20434;-68
2022/06/22 01:48:48;;;;;;;29.07;14.20;;;25.00;52.40;;;;;;5003476;28;20443;-66
2022/06/22 01:51:32;;;;;;;20.40;13.70;;;25.30;51.00;;;;;;5010591;28;20830;-66
2022/06/22 01:54:15;;;;;;;19.67;13.70;;;25.50;49.80;;;;;;4996876;28;20420;-67
2022/06/22 01:56:48;;;;;;;25.73;14.47;;;25.50;50.30;;;;;;5014693;28;20794;-66
2022/06/22 01:59:35;;;;;;;22.20;13.10;;;24.90;53.60;;;;;;5003104;28;20507;-67
2022/06/22 02:02:06;;;;;;;21.10;14.57;;;24.00;62.80;;;;;;5001900;28;20868;-66
2022/06/22 02:04:58;;;;;;;21.53;15.47;;;24.40;63.50;;;;;;5009546;28;20934;-67
2022/06/22 02:07:46;;;;;;;22.10;15.53;;;24.50;60.00;;;;;;5004015;28;20427;-66
2022/06/22 02:10:37;;;;;;;21.13;14.70;;;24.60;61.60;;;;;;5013908;28;20482;-68
2022/06/22 02:13:08;;;;;;;18.53;15.30;;;24.70;62.20;;;;;;5005969;28;20441;-66
2022/06/22 02:15:39;;;;;;;24.07;16.40;;;24.80;60.90;;;;;;5010340;28;20423;-67
2022/06/22 02:18:14;;;;;;;25.17;15.77;;;25.00;60.20;;;;;;5012185;28;20462;-67
2022/06/22 02:20:40;;;;;;;23.63;14.90;;;24.90;60.40;;;;;;5005526;28;20447;-67
2022/06/22 02:23:19;;;;;;;24.27;16.10;;;24.90;60.40;;;;;;5013234;28;20485;-68
2022/06/22 02:26:00;;;;;;;27.90;14.90;;;24.90;60.60;;;;;;4995941;28;20413;-68
2022/06/22 02:28:26;;;;;;;19.80;15.20;;;24.80;61.60;;;;;;5002896;28;20455;-68
2022/06/22 02:30:52;;;;;;;20.17;15.23;;;24.90;60.80;;;;;;5004474;28;20466;-68
2022/06/22 02:33:19;;;;;;;26.07;15.90;;;24.80;60.10;;;;;;5009640;28;20435;-68
2022/06/22 02:35:44;;;;;;;19.70;14.20;;;24.80;60.80;;;;;;5005511;28;20176;-68
2022/06/22 02:38:14;;;;;;;27.93;14.63;;;24.70;61.10;;;;;;5009694;28;20436;-69
2022/06/22 02:46:16;;;;;;;30.53;15.93;;;24.70;59.50;;;;;;5004219;28;20435;-68
2022/06/22 02:48:45;;;;;;;19.10;14.80;;;25.00;58.20;;;;;;5010936;28;20454;-67
2022/06/22 02:51:30;;;;;;;23.93;15.30;;;24.80;59.30;;;;;;5006330;28;20512;-67
2022/06/22 02:54:01;;;;;;;26.17;15.70;;;24.90;59.10;;;;;;5006955;28;20468;-68
2022/06/22 02:56:34;;;;;;;23.93;16.20;;;24.90;58.70;;;;;;5007080;28;20931;-67
2022/06/22 02:59:00;;;;;;;22.80;17.10;;;24.80;59.60;;;;;;5012514;28;20962;-67
2022/06/22 03:01:29;;;;;;;23.60;16.23;;;24.70;59.60;;;;;;5010856;28;20432;-67
2022/06/22 03:03:59;;;;;;;22.23;15.43;;;24.60;59.30;;;;;;5007780;28;20187;-68
2022/06/22 03:06:29;;;;;;;21.80;16.27;;;24.60;59.50;;;;;;5006781;28;20462;-68
2022/06/22 03:08:59;;;;;;;22.90;15.30;;;24.60;59.00;;;;;;5009079;28;20518;-68
2022/06/22 03:11:25;;;;;;;21.70;15.10;;;24.40;59.30;;;;;;5009567;28;20966;-67
2022/06/22 03:14:17;;;;;;;22.23;15.33;;;24.30;61.80;;;;;;5005976;28;20945;-67
2022/06/22 03:16:48;;;;;;;20.80;15.87;;;24.60;60.90;;;;;;5005996;28;20757;-65
2022/06/22 03:19:23;;;;;;;24.20;15.47;;;24.50;60.40;;;;;;5008109;28;20962;-65
2022/06/22 03:21:50;;;;;;;22.07;16.43;;;24.60;59.60;;;;;;5011966;28;20943;-65
2022/06/22 03:24:22;;;;;;;24.07;16.03;;;24.90;57.10;;;;;;5008044;28;20435;-65
2022/06/22 03:26:54;;;;;;;29.13;16.07;;;25.00;55.50;;;;;;5005562;28;20950;-69
2022/06/22 03:29:38;;;;;;;21.97;15.13;;;24.80;57.40;;;;;;5013061;28;20505;-69
2022/06/22 03:32:27;;;;;;;23.57;14.50;;;25.00;54.90;;;;;;5012611;28;20412;-68
2022/06/22 03:35:11;;;;;;;18.77;15.30;;;25.20;55.90;;;;;;5008458;28;20783;-68
2022/06/22 03:37:46;;;;;;;21.80;15.90;;;24.90;57.70;;;;;;5000848;28;20431;-68
2022/06/22 03:40:19;;;;;;;23.87;15.90;;;24.70;59.80;;;;;;5013242;28;20492;-67
2022/06/22 03:42:51;;;;;;;21.57;15.30;;;24.70;59.60;;;;;;5017619;28;20749;-67
2022/06/22 03:45:26;;;;;;;20.70;15.27;;;24.60;59.90;;;;;;4987895;28;20926;-68
2022/06/22 03:47:51;;;;;;;22.93;15.30;;;24.60;58.60;;;;;;5006336;28;20459;-67
2022/06/22 03:50:31;;;;;;;21.73;15.97;;;24.60;59.60;;;;;;5010365;28;20495;-67
2022/06/22 03:53:12;;;;;;;20.30;15.73;;;24.60;60.10;;;;;;5005859;28;20240;-67
2022/06/22 03:55:44;;;;;;;22.40;15.43;;;24.60;59.30;;;;;;5012317;28;20422;-69
2022/06/22 03:58:11;;;;;;;25.33;15.23;;;24.60;58.40;;;;;;5007858;28;20452;-68
2022/06/22 04:00:40;;;;;;;23.50;15.47;;;24.60;59.40;;;;;;5005420;28;21009;-67
2022/06/22 04:03:07;;;;;;;22.03;15.03;;;24.50;59.30;;;;;;5016775;28;20565;-67
2022/06/22 04:05:43;;;;;;;22.83;16.00;;;24.30;61.20;;;;;;5007478;28;20445;-68
2022/06/22 04:08:31;;;;;;;22.43;15.07;;;23.80;61.80;;;;;;5013560;28;20442;-68
2022/06/22 04:11:04;;;;;;;20.57;16.00;;;23.50;66.80;;;;;;4998361;28;20455;-68
2022/06/22 04:13:42;;;;;;;68.80;17.03;;;23.80;65.10;;;;;;5012914;28;20428;-67
2022/06/22 04:16:20;;;;;;;27.57;16.00;;;24.10;62.70;;;;;;5007162;28;20409;-68
2022/06/22 04:18:48;;;;;;;25.17;17.00;;;23.60;66.20;;;;;;5004010;28;20572;-67
2022/06/22 04:21:22;;;;;;;23.30;16.17;;;23.70;67.30;;;;;;5004599;28;20526;-67
2022/06/22 04:23:55;;;;;;;19.07;15.87;;;24.20;63.10;;;;;;5011796;28;20509;-68
2022/06/22 04:26:26;;;;;;;25.33;16.77;;;24.60;62.00;;;;;;5006930;28;20478;-67
2022/06/22 04:29:15;;;;;;;24.40;16.80;;;24.60;62.10;;;;;;5010510;28;20440;-67
2022/06/22 04:31:53;;;;;;;29.57;16.10;;;24.50;60.10;;;;;;5000237;28;20486;-67
2022/06/22 04:34:59;;;;;;;20.80;15.37;;;24.60;59.00;;;;;;5016510;28;20446;-68
2022/06/22 04:37:33;;;;;;;22.10;16.00;;;24.90;56.50;;;;;;4968631;28;20732;-67
2022/06/22 04:40:19;;;;;;;23.90;16.37;;;24.90;57.60;;;;;;5003254;28;21012;-69
2022/06/22 04:42:45;;;;;;;22.87;17.00;;;25.10;56.20;;;;;;5007217;28;20478;-67
2022/06/22 04:45:31;;;;;;;21.47;16.00;;;24.90;58.40;;;;;;5011368;28;20416;-69
2022/06/22 04:48:07;;;;;;;29.10;16.60;;;24.80;59.50;;;;;;5004078;28;20479;-68
2022/06/22 04:50:36;;;;;;;25.37;15.90;;;24.90;59.20;;;;;;5004508;28;20458;-67
2022/06/22 04:53:03;;;;;;;23.80;15.90;;;24.80;59.90;;;;;;4997999;28;20971;-67
2022/06/22 04:55:33;;;;;;;23.70;17.40;;;24.80;61.20;;;;;;5009410;28;20431;-68
2022/06/22 04:58:03;;;;;;;25.53;16.80;;;24.80;60.50;;;;;;5008221;28;20973;-67
2022/06/22 05:00:32;;;;;;;25.20;16.77;;;25.00;58.30;;;;;;5002037;28;20899;-67
2022/06/22 05:03:09;;;;;;;24.30;15.70;;;24.90;57.00;;;;;;5002712;28;20433;-68
2022/06/22 05:05:35;;;;;;;20.60;15.73;;;24.80;59.50;;;;;;5006617;28;20439;-68
2022/06/22 05:08:12;;;;;;;25.43;15.53;;;25.00;59.80;;;;;;5011249;28;20432;-70
2022/06/22 05:10:43;;;;;;;21.70;15.30;;;24.90;60.80;;;;;;5013209;28;20805;-68
2022/06/22 05:13:16;;;;;;;33.23;14.87;;;25.10;55.30;;;;;;5002773;28;20420;-68
2022/06/22 05:15:44;;;;;;;27.40;15.70;;;24.70;58.30;;;;;;5019312;28;20431;-68
2022/06/22 05:18:21;;;;;;;29.43;16.00;;;24.80;57.10;;;;;;5012323;28;20434;-68
2022/06/22 05:21:00;;;;;;;24.00;15.60;;;25.10;55.10;;;;;;5010035;28;20446;-68
2022/06/22 05:23:29;;;;;;;20.80;15.60;;;25.30;54.50;;;;;;5014450;28;20432;-69
2022/06/22 05:25:57;;;;;;;19.77;14.30;;;25.70;51.60;;;;;;5015124;28;20432;-68
2022/06/22 05:28:42;;;;;;;22.97;15.20;;;25.50;52.30;;;;;;4999383;28;20460;-73
2022/06/22 05:31:44;;;;;;;18.33;14.10;;;25.20;53.60;;;;;;5008293;28;20458;-67
2022/06/22 05:34:16;;;;;;;20.47;15.03;;;24.30;59.70;;;;;;4992071;28;20511;-67
2022/06/22 05:36:46;;;;;;;19.20;14.07;;;24.90;57.80;;;;;;5002546;28;20778;-67
2022/06/22 05:39:12;;;;;;;23.83;15.47;;;24.90;56.50;;;;;;5006351;28;20450;-68
2022/06/22 05:41:44;;;;;;;25.43;15.03;;;24.90;56.50;;;;;;5003583;28;20435;-67
2022/06/22 05:44:13;;;;;;;30.53;16.20;;;24.40;59.50;;;;;;5011099;28;20431;-67
2022/06/22 05:46:53;;;;;;;26.10;15.50;;;23.80;64.60;;;;;;5013934;28;21013;-69
2022/06/22 05:49:23;;;;;;;28.20;17.63;;;23.40;69.30;;;;;;5006222;28;20441;-69
2022/06/22 05:52:02;;;;;;;28.00;17.47;;;23.10;73.70;;;;;;5000852;28;20453;-68
2022/06/22 05:54:32;;;;;;;35.03;18.23;;;22.50;81.40;;;;;;5010604;28;20796;-67
2022/06/22 05:57:15;;;;;;;39.43;19.00;;;22.70;80.20;;;;;;4993038;28;20451;-68
2022/06/22 05:59:47;;;;;;;32.27;19.67;;;23.60;71.20;;;;;;4984294;28;20820;-70
2022/06/22 06:02:15;;;;;;;25.67;19.77;;;23.30;74.00;;;;;;5016337;28;20435;-67
2022/06/22 06:04:48;;;;;;;24.30;18.67;;;23.80;71.90;;;;;;5010542;28;21010;-67
2022/06/22 06:07:18;;;;;;;32.20;19.90;;;23.70;70.50;;;;;;5009633;28;20412;-68
2022/06/22 06:09:44;;;;;;;34.23;19.37;;;24.20;69.40;;;;;;5005988;28;20440;-68
2022/06/22 06:12:16;;;;;;;27.53;20.07;;;24.90;63.10;;;;;;5010634;28;21017;-67
2022/06/22 06:14:46;;;;;;;25.73;18.27;;;24.90;64.70;;;;;;5011449;28;20446;-67
2022/06/22 06:17:22;;;;;;;30.73;20.20;;;24.70;64.20;;;;;;4999751;28;20428;-67
2022/06/22 06:19:52;;;;;;;31.13;22.00;;;24.80;66.10;;;;;;5007893;28;20451;-68
2022/06/22 06:22:18;;;;;;;34.73;21.93;;;24.90;66.70;;;;;;5007576;28;20412;-66
2022/06/22 06:27:41;;;;;;;36.63;21.40;;;25.20;65.00;;;;;;5010386;28;20411;-67
2022/06/22 06:30:26;;;;;;;24.43;16.80;;;24.90;68.40;;;;;;5001534;28;20972;-67
2022/06/22 06:32:59;;;;;;;25.87;16.63;;;24.70;67.70;;;;;;5003440;28;20428;-67
2022/06/22 06:35:28;;;;;;;28.00;15.83;;;24.60;67.70;;;;;;5008073;28;20424;-67
2022/06/22 06:38:11;;;;;;;24.53;14.77;;;24.40;68.30;;;;;;4999542;28;20427;-67
2022/06/22 06:40:46;;;;;;;32.10;16.80;;;24.60;69.20;;;;;;5014630;28;20435;-67
2022/06/22 06:43:15;;;;;;;38.00;18.60;;;24.90;67.60;;;;;;5007788;28;20427;-68
2022/06/22 06:45:41;;;;;;;25.10;14.03;;;25.00;66.20;;;;;;5013654;28;20467;-68
2022/06/22 06:48:12;;;;;;;32.37;14.63;;;24.40;65.40;;;;;;5012653;28;20531;-67
2022/06/22 06:50:47;;;;;;;23.33;13.30;;;24.00;70.20;;;;;;5012830;28;20447;-67
2022/06/22 06:53:28;;;;;;;22.20;14.17;;;24.00;67.60;;;;;;5009683;28;20922;-67
2022/06/22 06:56:12;;;;;;;25.03;15.13;;;23.90;72.10;;;;;;5009017;28;20415;-67
2022/06/22 06:58:41;;;;;;;29.07;15.60;;;24.10;70.90;;;;;;5042831;22;20457;-70
2022/06/22 07:01:15;;;;;;;32.90;15.60;;;24.20;71.10;;;;;;5052681;28;20430;-69
2022/06/22 07:03:41;;;;;;;22.80;16.10;;;24.70;69.00;;;;;;5053825;28;20454;-70
2022/06/22 07:06:09;;;;;;;34.80;16.97;;;25.00;66.80;;;;;;5054014;28;20434;-70
2022/06/22 07:08:44;;;;;;;30.07;16.27;;;25.30;65.30;;;;;;5049593;28;20442;-69
2022/06/22 07:11:18;;;;;;;23.00;15.00;;;25.30;66.20;;;;;;5033489;28;20465;-69
2022/06/22 07:13:43;;;;;;;23.40;16.27;;;25.60;60.00;;;;;;5027918;28;20467;-70
2022/06/22 07:16:14;;;;;;;33.63;16.63;;;25.70;63.40;;;;;;5029801;28;20451;-69
2022/06/22 07:18:49;;;;;;;27.60;16.00;;;25.70;63.80;;;;;;5029753;28;20199;-69
2022/06/22 07:21:37;;;;;;;25.97;17.10;;;25.80;64.90;;;;;;5033192;28;20441;-70
2022/06/22 07:24:24;;;;;;;34.70;16.60;;;25.80;65.70;;;;;;5029296;28;20457;-69
2022/06/22 07:27:10;;;;;;;25.57;16.40;;;25.90;64.20;;;;;;5028877;28;20802;-69
2022/06/22 07:29:50;;;;;;;24.03;15.33;;;26.00;62.50;;;;;;5028922;28;22036;-69
2022/06/22 07:32:47;;;;;;;26.30;15.80;;;26.00;65.00;;;;;;5032451;28;20534;-69
2022/06/22 07:35:19;;;;;;;18.40;14.30;;;26.10;62.30;;;;;;5030459;28;20933;-69
2022/06/22 07:38:22;;;;;;;28.37;15.70;;;26.20;61.20;;;;;;5035253;28;20483;-69
2022/06/22 07:43:33;;;;;;;26.60;13.73;;;25.90;61.60;;;;;;5028677;28;20441;-69
2022/06/22 07:46:00;;;;;;;34.67;15.70;;;25.70;61.80;;;;;;5034715;28;20442;-69
2022/06/22 07:48:29;;;;;;;22.30;14.70;;;25.80;64.60;;;;;;5031974;28;20466;-69
2022/06/22 07:50:58;;;;;;;20.97;14.30;;;26.10;65.00;;;;;;5032045;28;20458;-69
2022/06/22 07:53:33;;;;;;;21.00;14.80;;;26.40;59.80;;;;;;5032299;28;20431;-69
2022/06/22 07:56:22;;;;;;;24.50;15.60;;;26.40;58.30;;;;;;5029524;28;20464;-69
2022/06/22 07:58:55;;;;;;;20.17;14.40;;;26.60;59.90;;;;;;5031384;28;20489;-71
2022/06/22 08:01:29;;;;;;;21.97;14.67;;;26.60;58.00;;;;;;5039455;28;20529;-69
2022/06/22 08:04:36;;;;;;;24.40;16.90;;;26.50;58.40;;;;;;5037411;28;20432;-69
2022/06/22 08:07:37;;;;;;;21.00;15.17;;;26.50;58.30;;;;;;4916442;29;20503;-70
2022/06/22 08:10:41;;;;;;;27.33;15.70;;;26.40;55.80;;;;;;5030056;28;20501;-70
2022/06/22 08:13:30;;;;;;;29.10;15.17;;;26.30;58.90;;;;;;5030229;28;20411;-69
2022/06/22 08:16:13;;;;;;;19.37;14.60;;;26.30;53.00;;;;;;5045654;28;20407;-70
2022/06/22 08:18:39;;;;;;;30.43;15.17;;;26.30;53.00;;;;;;5034064;28;20521;-70
2022/06/22 08:21:06;;;;;;;22.93;14.50;;;26.30;54.10;;;;;;5032575;28;20429;-71
2022/06/22 08:23:35;;;;;;;22.10;15.40;;;26.20;58.40;;;;;;5037471;28;20465;-70
2022/06/22 08:26:04;;;;;;;31.93;14.40;;;26.20;54.10;;;;;;5044349;28;20418;-71
2022/06/22 08:28:33;;;;;;;30.03;15.80;;;26.20;53.90;;;;;;5036198;28;20960;-70
2022/06/22 08:30:58;;;;;;;31.17;16.07;;;26.20;53.30;;;;;;5032398;28;20553;-69
2022/06/22 08:33:50;;;;;;;34.43;15.10;;;22.20;51.50;;;;;;5034510;28;20573;-70
2022/06/22 08:36:33;;;;;;;28.43;15.20;;;26.00;56.30;;;;;;5034358;28;20164;-70
2022/06/22 08:39:05;;;;;;;25.27;15.43;;;26.10;55.70;;;;;;5043109;28;20493;-71
2022/06/22 08:41:34;;;;;;;26.87;16.10;;;26.10;57.30;;;;;;5036186;28;20434;-72
2022/06/22 08:44:36;;;;;;;27.93;16.73;;;26.00;56.50;;;;;;5033582;28;20802;-73
2022/06/22 08:47:28;;;;;;;22.10;15.93;;;26.00;56.90;;;;;;5030610;28;20961;-70
2022/06/22 08:49:56;;;;;;;25.57;16.27;;;25.80;59.60;;;;;;5041013;28;20532;-73
2022/06/22 08:52:41;;;;;;;31.43;15.87;;;25.90;57.20;;;;;;5043568;28;20414;-70
2022/06/22 08:55:39;;;;;;;25.57;15.00;;;25.90;57.50;;;;;;5034984;28;20415;-73
2022/06/22 08:58:33;;;;;;;22.40;14.20;;;26.00;56.80;;;;;;4989095;28;20512;-71
2022/06/22 09:01:22;;;;;;;23.73;15.80;;;25.90;56.10;;;;;;4995813;28;20929;-70
2022/06/22 09:04:19;;;;;;;23.53;15.03;;;25.90;59.00;;;;;;5039699;28;20510;-69
2022/06/22 09:06:55;;;;;;;26.23;16.30;;;26.30;51.70;;;;;;5037609;28;20422;-70
2022/06/22 09:09:21;;;;;;;26.20;15.67;;;26.60;52.00;;;;;;5050607;28;20441;-69
2022/06/22 09:12:04;;;;;;;28.37;14.70;;;26.60;53.50;;;;;;5044005;28;20511;-70
2022/06/22 09:14:54;;;;;;;27.47;14.50;;;26.60;54.50;;;;;;5043019;28;20173;-70
2022/06/22 09:17:39;;;;;;;17.27;12.70;;;26.90;53.60;;;;;;5030037;28;20423;-69
2022/06/22 09:20:13;;;;;;;31.43;13.60;;;27.00;47.70;;;;;;5030682;28;20458;-70
2022/06/22 09:22:59;;;;;;;22.03;13.80;;;26.90;50.20;;;;;;5031966;28;20417;-71
2022/06/22 09:25:37;;;;;;;20.97;13.77;;;27.00;52.20;;;;;;5027335;28;20437;-71
2022/06/22 09:28:22;;;;;;;22.60;13.40;;;27.00;47.80;;;;;;5024976;28;20732;-70
2022/06/22 09:31:04;;;;;;;24.00;14.13;;;27.20;45.90;;;;;;5030443;28;20853;-68
2022/06/22 09:33:39;;;;;;;21.27;13.10;;;26.90;46.90;;;;;;5025150;28;20434;-68
2022/06/22 09:36:42;;;;;;;21.20;13.77;;;26.10;53.60;;;;;;5023118;28;20438;-70
2022/06/22 09:39:38;;;;;;;25.00;13.97;;;25.70;51.50;;;;;;5029796;28;20457;-68
2022/06/22 09:42:23;;;;;;;22.20;13.00;;;25.90;52.50;;;;;;5026172;28;20422;-69
2022/06/22 09:45:20;;;;;;;20.13;12.90;;;26.50;48.50;;;;;;5033301;28;20423;-69
2022/06/22 09:48:19;;;;;;;24.83;13.80;;;26.50;48.40;;;;;;4959213;28;20949;-69
2022/06/22 09:50:53;;;;;;;21.77;13.60;;;26.70;52.70;;;;;;5025171;28;20913;-69
2022/06/22 09:53:25;;;;;;;24.20;13.30;;;26.70;45.30;;;;;;5028913;28;20430;-70
2022/06/22 09:56:25;;;;;;;24.90;14.27;;;26.00;48.00;;;;;;5030533;28;20514;-69
2022/06/22 09:59:08;;;;;;;21.13;13.80;;;25.70;50.50;;;;;;5025846;28;20464;-71
2022/06/22 10:01:40;;;;;;;17.00;12.70;;;26.00;50.80;;;;;;5031705;28;20422;-68
2022/06/22 10:04:35;;;;;;;26.37;13.50;;;26.40;48.50;;;;;;5033722;28;20415;-69
2022/06/22 10:07:04;;;;;;;20.13;12.67;;;26.80;46.30;;;;;;5027043;28;20454;-69
2022/06/22 10:09:35;;;;;;;20.17;12.87;;;26.80;45.10;;;;;;5020968;28;20446;-71
2022/06/22 10:12:22;;;;;;;24.33;13.10;;;26.70;45.50;;;;;;5029161;28;20490;-68
2022/06/22 10:15:01;;;;;;;19.13;12.17;;;26.50;46.40;;;;;;5023862;28;20481;-69
2022/06/22 10:17:30;;;;;;;16.13;11.77;;;26.10;49.20;;;;;;5031415;28;20441;-69
2022/06/22 10:20:26;;;;;;;21.40;12.97;;;26.40;51.10;;;;;;5039646;28;20439;-71
2022/06/22 10:23:10;;;;;;;26.67;12.17;;;26.40;47.30;;;;;;5019114;28;20432;-69
2022/06/22 10:26:04;;;;;;;20.77;11.50;;;26.80;46.90;;;;;;5025394;28;20513;-69
2022/06/22 10:28:54;;;;;;;20.80;12.43;;;27.00;49.60;;;;;;5035240;28;20421;-68
2022/06/22 10:31:22;;;;;;;18.87;12.53;;;27.10;45.50;;;;;;5031088;28;20463;-68
2022/06/22 10:34:09;;;;;;;25.30;11.50;;;27.10;47.80;;;;;;5033961;28;20426;-69
2022/06/22 10:36:53;;;;;;;26.23;12.10;;;26.90;47.70;;;;;;5022716;28;20457;-70
2022/06/22 10:39:44;;;;;;;21.93;10.90;;;26.80;47.40;;;;;;5043764;28;20447;-69
2022/06/22 10:46:04;;;;;;;17.73;10.40;;;26.70;52.00;;;;;;5030832;28;20488;-71
2022/06/22 10:48:49;;;;;;;21.10;10.77;;;26.50;49.70;;;;;;4931340;29;20451;-69
2022/06/22 10:51:42;;;;;;;19.80;10.40;;;26.70;48.60;;;;;;4929695;29;20556;-70
2022/06/22 10:54:18;;;;;;;19.40;9.77;;;26.70;46.60;;;;;;4928805;29;20439;-79
2022/06/22 10:56:51;;;;;;;18.97;10.00;;;26.60;47.80;;;;;;4936342;29;20423;-69
2022/06/22 10:59:16;;;;;;;18.97;9.50;;;26.30;49.80;;;;;;4931787;29;20561;-69
2022/06/22 11:02:02;;;;;;;19.20;10.67;;;26.20;47.90;;;;;;4929856;29;20424;-69
2022/06/22 11:04:50;;;;;;;15.23;9.30;;;26.10;48.70;;;;;;4929420;29;20247;-69
2022/06/22 11:07:31;;;;;;;16.33;8.50;;;26.10;48.60;;;;;;4930618;29;20810;-69
2022/06/22 11:10:17;;;;;;;22.80;9.20;;;26.30;48.90;;;;;;4929539;29;20470;-71
2022/06/22 11:13:25;;;;;;;18.43;8.50;;;26.40;48.10;;;;;;4929305;29;20436;-69
2022/06/22 11:16:14;;;;;;;16.60;8.53;;;26.30;46.70;;;;;;4922500;29;20442;-70
2022/06/22 11:19:01;;;;;;;27.03;7.20;;;26.00;49.10;;;;;;4926465;29;20455;-70
2022/06/22 11:21:45;;;;;;;16.20;6.97;;;26.00;45.80;;;;;;4935937;28;20486;-69
2022/06/22 11:24:16;;;;;;;15.20;7.03;;;25.90;50.00;;;;;;5034514;28;20509;-69
2022/06/22 11:32:56;;;;;;;16.00;7.37;;;25.80;55.00;;;;;;4991895;28;20450;-70
2022/06/22 11:35:41;;;;;;;23.80;7.70;;;26.00;55.30;;;;;;4987912;28;20448;-70
2022/06/22 11:38:32;;;;;;;23.00;7.40;;;26.30;50.80;;;;;;4991969;28;20446;-69
2022/06/22 11:41:35;;;;;;;11.73;6.70;;;26.20;54.10;;;;;;4992023;28;20845;-69
2022/06/22 11:44:11;;;;;;;20.90;6.90;;;26.10;57.10;;;;;;5000625;28;20960;-69
2022/06/22 11:46:47;;;;;;;25.53;6.53;;;26.60;55.20;;;;;;4989212;28;20436;-69
2022/06/22 11:49:15;;;;;;;20.63;7.17;;;26.50;53.70;;;;;;4991757;28;20829;-69
2022/06/22 11:52:11;;;;;;;16.13;6.30;;;26.60;54.10;;;;;;4991792;28;20498;-69
2022/06/22 11:54:58;;;;;;;22.50;6.20;;;26.80;48.80;;;;;;4986732;28;20477;-69
2022/06/22 11:57:52;;;;;;;15.93;5.50;;;27.00;50.90;;;;;;4990420;28;20438;-69
2022/06/22 12:00:39;;;;;;;17.10;6.33;;;26.70;48.20;;;;;;5006757;28;20470;-69
2022/06/22 12:03:04;;;;;;;12.50;5.70;;;26.50;50.10;;;;;;5044497;28;20407;-69
2022/06/22 12:05:53;;;;;;;13.33;5.33;;;26.60;52.30;;;;;;5044010;28;20791;-70
2022/06/22 12:08:49;;;;;;;20.07;5.53;;;26.80;50.80;;;;;;5025162;28;20199;-69
2022/06/22 12:11:38;;;;;;;19.40;5.90;;;26.70;48.30;;;;;;5037434;28;20853;-69
2022/06/22 12:17:10;;;;;;;24.53;6.00;;;26.60;47.80;;;;;;5027590;28;20841;-69
2022/06/22 12:19:51;;;;;;;17.47;6.33;;;26.70;50.50;;;;;;5030989;28;20477;-69
2022/06/22 12:22:40;;;;;;;21.17;5.63;;;28.80;51.40;;;;;;5039326;28;20847;-69
2022/06/22 12:25:47;;;;;;;22.20;5.70;;;27.20;50.50;;;;;;5032639;28;20774;-70
2022/06/22 12:28:34;;;;;;;30.00;5.40;;;26.80;50.90;;;;;;4993278;28;20439;-69
2022/06/22 12:31:19;;;;;;;16.33;5.80;;;27.30;54.20;;;;;;5027098;28;20954;-69
2022/06/22 12:34:16;;;;;;;31.83;5.80;;;27.70;47.10;;;;;;5029696;28;20423;-70
2022/06/22 12:36:49;;;;;;;21.80;5.43;;;27.90;43.80;;;;;;5028886;28;21142;-69
2022/06/22 12:39:24;;;;;;;26.87;5.90;;;27.80;43.90;;;;;;5031179;28;20815;-71
2022/06/22 12:42:08;;;;;;;19.23;6.37;;;28.00;40.40;;;;;;5026013;28;20509;-70
2022/06/22 12:45:01;;;;;;;23.10;6.97;;;28.10;41.20;;;;;;5028166;28;20437;-69
2022/06/22 12:48:19;;;;;;;21.87;5.83;;;27.50;42.90;;;;;;5027241;28;20774;-70
2022/06/22 12:50:56;;;;;;;26.43;6.10;;;26.90;40.50;;;;;;4979275;28;20475;-70
2022/06/22 12:53:57;;;;;;;21.70;6.03;;;27.10;43.30;;;;;;5029750;28;20932;-69
2022/06/22 12:56:41;;;;;;;24.77;6.67;;;27.10;40.10;;;;;;4954949;28;20442;-69
2022/06/22 12:59:09;;;;;;;22.50;6.03;;;26.80;42.60;;;;;;4991498;22;20493;-68
2022/06/22 13:01:37;;;;;;;27.40;6.23;;;27.10;41.40;;;;;;5041398;28;20437;-69
2022/06/22 13:04:23;;;;;;;20.40;6.00;;;27.40;42.20;;;;;;5048202;28;20426;-69
2022/06/22 13:06:55;;;;;;;20.50;5.80;;;27.80;40.80;;;;;;5026364;28;20426;-69
2022/06/22 13:09:22;;;;;;;16.57;5.63;;;28.10;38.30;;;;;;5044788;28;20446;-69
2022/06/22 13:11:49;;;;;;;15.80;5.97;;;28.10;40.50;;;;;;5028383;28;20549;-69
2022/06/22 13:14:35;;;;;;;23.57;6.80;;;28.10;39.60;;;;;;5030539;28;20439;-68
2022/06/22 13:17:22;;;;;;;24.97;6.57;;;27.70;39.40;;;;;;5030235;28;20558;-68
2022/06/22 13:20:01;;;;;;;21.70;6.07;;;27.80;41.90;;;;;;5026151;28;20793;-69
2022/06/22 13:22:35;;;;;;;23.50;7.13;;;27.90;40.00;;;;;;5011422;28;20512;-69
2022/06/22 13:25:24;;;;;;;27.67;6.13;;;27.80;41.50;;;;;;5027833;28;20429;-69
2022/06/22 13:28:11;;;;;;;18.70;6.13;;;27.70;40.40;;;;;;5019641;28;20466;-68
2022/06/22 13:30:39;;;;;;;25.10;6.43;;;27.40;38.10;;;;;;5035884;28;20469;-67
2022/06/22 13:33:17;;;;;;;20.47;6.50;;;27.20;41.40;;;;;;5041755;28;20423;-69
2022/06/22 13:36:00;;;;;;;30.37;6.43;;;27.30;40.40;;;;;;5040101;28;20414;-69
2022/06/22 13:38:59;;;;;;;25.67;7.30;;;27.70;41.40;;;;;;5045644;28;20764;-69
2022/06/22 13:41:40;;;;;;;23.37;7.13;;;28.00;38.20;;;;;;5031613;28;20425;-69
2022/06/22 13:44:32;;;;;;;23.43;6.60;;;28.10;39.00;;;;;;5036913;28;20425;-69
2022/06/22 13:47:18;;;;;;;24.63;6.20;;;28.20;41.60;;;;;;5012358;28;20481;-68
2022/06/22 13:50:20;;;;;;;21.40;6.47;;;28.40;37.40;;;;;;5034472;28;20439;-69